sensor_id;sensor_type;location;lat;lon;timestamp;pressure;altitude;pressure_sealevel;temperature
68440;BMP180;55421;51.600;5.718;2022-11-15T00:01:08;190971.80;;;7.90
68440;BMP180;55421;51.600;5.718;2022-11-15T00:03:35;190082.00;;;7.90
68440;BMP180;55421;51.600;5.718;2022-11-15T00:06:04;103855.40;;;7.94
68440;BMP180;55421;51.600;5.718;2022-11-15T00:08:32;145513.00;;;8.00
68440;BMP180;55421;51.600;5.718;2022-11-15T00:11:01;221841.41;;;8.00
68440;BMP180;55421;51.600;5.718;2022-11-15T00:13:29;99891.60;;;8.10
68440;BMP180;55421;51.600;5.718;2022-11-15T00:16:00;220225.80;;;8.10
68440;BMP180;55421;51.600;5.718;2022-11-15T00:18:29;226278.20;;;8.10
68440;BMP180;55421;51.600;5.718;2022-11-15T00:21:03;55000.20;;;8.10
68440;BMP180;55421;51.600;5.718;2022-11-15T00:23:30;230893.20;;;8.20
68440;BMP180;55421;51.600;5.718;2022-11-15T00:25:58;141001.80;;;8.24
68440;BMP180;55421;51.600;5.718;2022-11-15T00:28:25;99583.20;;;8.30
68440;BMP180;55421;51.600;5.718;2022-11-15T00:30:52;184532.00;;;8.30
68440;BMP180;55421;51.600;5.718;2022-11-15T00:33:19;11177.40;;;8.30
68440;BMP180;55421;51.600;5.718;2022-11-15T00:35:46;97840.40;;;8.30
68440;BMP180;55421;51.600;5.718;2022-11-15T00:38:12;235407.20;;;8.30
68440;BMP180;55421;51.600;5.718;2022-11-15T00:40:39;187315.59;;;8.40
68440;BMP180;55421;51.600;5.718;2022-11-15T00:43:05;231950.59;;;8.40
68440;BMP180;55421;51.600;5.718;2022-11-15T00:45:31;144053.20;;;8.48
68440;BMP180;55421;51.600;5.718;2022-11-15T00:47:58;56756.80;;;8.50
68440;BMP180;55421;51.600;5.718;2022-11-15T00:50:24;106336.80;;;8.50
68440;BMP180;55421;51.600;5.718;2022-11-15T00:52:51;223506.00;;;8.54
68440;BMP180;55421;51.600;5.718;2022-11-15T00:55:19;235411.59;;;8.60
68440;BMP180;55421;51.600;5.718;2022-11-15T00:57:46;227576.80;;;8.60
68440;BMP180;55421;51.600;5.718;2022-11-15T01:00:13;237984.41;;;8.70
68440;BMP180;55421;51.600;5.718;2022-11-15T01:02:40;233598.80;;;8.70
68440;BMP180;55421;51.600;5.718;2022-11-15T01:05:07;149642.59;;;8.70
68440;BMP180;55421;51.600;5.718;2022-11-15T01:07:34;143385.80;;;8.70
68440;BMP180;55421;51.600;5.718;2022-11-15T01:10:01;220759.80;;;8.70
68440;BMP180;55421;51.600;5.718;2022-11-15T01:12:27;235088.20;;;8.76
68440;BMP180;55421;51.600;5.718;2022-11-15T01:14:54;228413.80;;;8.80
68440;BMP180;55421;51.600;5.718;2022-11-15T01:17:20;231573.20;;;8.80
68440;BMP180;55421;51.600;5.718;2022-11-15T01:19:47;225046.00;;;8.82
68440;BMP180;55421;51.600;5.718;2022-11-15T01:22:14;230387.41;;;8.90
68440;BMP180;55421;51.600;5.718;2022-11-15T01:24:41;228916.80;;;8.84
68440;BMP180;55421;51.600;5.718;2022-11-15T01:27:08;53642.80;;;8.90
68440;BMP180;55421;51.600;5.718;2022-11-15T01:29:34;225436.59;;;8.90
68440;BMP180;55421;51.600;5.718;2022-11-15T01:32:01;97494.20;;;8.90
68440;BMP180;55421;51.600;5.718;2022-11-15T01:34:28;231077.00;;;8.90
68440;BMP180;55421;51.600;5.718;2022-11-15T01:36:56;230382.00;;;8.90
68440;BMP180;55421;51.600;5.718;2022-11-15T01:39:22;59833.20;;;8.96
68440;BMP180;55421;51.600;5.718;2022-11-15T01:41:49;144750.20;;;9.00
68440;BMP180;55421;51.600;5.718;2022-11-15T01:44:37;52202.80;;;9.00
68440;BMP180;55421;51.600;5.718;2022-11-15T01:47:13;235523.20;;;9.00
68440;BMP180;55421;51.600;5.718;2022-11-15T01:50:06;229080.00;;;9.00
68440;BMP180;55421;51.600;5.718;2022-11-15T01:52:35;194492.20;;;9.00
68440;BMP180;55421;51.600;5.718;2022-11-15T01:55:13;183094.41;;;9.00
68440;BMP180;55421;51.600;5.718;2022-11-15T01:57:45;54837.00;;;9.00
68440;BMP180;55421;51.600;5.718;2022-11-15T02:00:14;33979.00;;;9.10
68440;BMP180;55421;51.600;5.718;2022-11-15T02:02:41;57929.20;;;9.10
68440;BMP180;55421;51.600;5.718;2022-11-15T02:05:08;34457.20;;;9.10
68440;BMP180;55421;51.600;5.718;2022-11-15T02:07:36;16184.80;;;9.08
68440;BMP180;55421;51.600;5.718;2022-11-15T02:10:17;18439.80;;;9.10
68440;BMP180;55421;51.600;5.718;2022-11-15T02:12:44;20123.40;;;9.10
68440;BMP180;55421;51.600;5.718;2022-11-15T02:15:12;101096.00;;;9.10
68440;BMP180;55421;51.600;5.718;2022-11-15T02:18:15;187974.20;;;9.20
68440;BMP180;55421;51.600;5.718;2022-11-15T02:23:53;5092.40;;;9.20
68440;BMP180;55421;51.600;5.718;2022-11-15T02:32:56;144815.20;;;9.32
68440;BMP180;55421;51.600;5.718;2022-11-15T02:36:01;150696.80;;;9.40
68440;BMP180;55421;51.600;5.718;2022-11-15T02:39:03;54102.00;;;9.40
68440;BMP180;55421;51.600;5.718;2022-11-15T02:42:23;21507.00;;;9.40
68440;BMP180;55421;51.600;5.718;2022-11-15T02:45:19;31758.20;;;9.50
68440;BMP180;55421;51.600;5.718;2022-11-15T02:47:49;61340.40;;;9.50
68440;BMP180;55421;51.600;5.718;2022-11-15T02:50:22;103295.60;;;9.56
68440;BMP180;55421;51.600;5.718;2022-11-15T02:52:51;53172.40;;;9.60
68440;BMP180;55421;51.600;5.718;2022-11-15T02:55:32;16419.00;;;9.60
68440;BMP180;55421;51.600;5.718;2022-11-15T02:58:19;18257.80;;;9.66
68440;BMP180;55421;51.600;5.718;2022-11-15T03:07:32;101496.00;;;9.76
68440;BMP180;55421;51.600;5.718;2022-11-15T03:10:09;21914.40;;;9.80
68440;BMP180;55421;51.600;5.718;2022-11-15T03:13:24;31680.00;;;9.80
68440;BMP180;55421;51.600;5.718;2022-11-15T03:16:11;52342.20;;;9.80
68440;BMP180;55421;51.600;5.718;2022-11-15T03:18:47;45767.60;;;9.80
68440;BMP180;55421;51.600;5.718;2022-11-15T03:21:17;20975.00;;;9.80
68440;BMP180;55421;51.600;5.718;2022-11-15T03:23:48;27446.00;;;9.90
68440;BMP180;55421;51.600;5.718;2022-11-15T03:26:18;34646.60;;;9.90
68440;BMP180;55421;51.600;5.718;2022-11-15T03:28:55;30777.40;;;9.90
68440;BMP180;55421;51.600;5.718;2022-11-15T03:31:30;45954.80;;;9.90
68440;BMP180;55421;51.600;5.718;2022-11-15T03:34:41;28624.00;;;9.90
68440;BMP180;55421;51.600;5.718;2022-11-15T03:37:14;32648.20;;;10.00
68440;BMP180;55421;51.600;5.718;2022-11-15T03:39:43;25688.40;;;10.00
68440;BMP180;55421;51.600;5.718;2022-11-15T03:42:42;53725.40;;;10.00
68440;BMP180;55421;51.600;5.718;2022-11-15T03:48:22;34126.60;;;10.00
68440;BMP180;55421;51.600;5.718;2022-11-15T03:50:51;36000.00;;;10.00
68440;BMP180;55421;51.600;5.718;2022-11-15T03:53:18;82350.20;;;10.00
68440;BMP180;55421;51.600;5.718;2022-11-15T03:55:44;43497.40;;;10.08
68440;BMP180;55421;51.600;5.718;2022-11-15T03:58:11;29686.60;;;10.10
68440;BMP180;55421;51.600;5.718;2022-11-15T04:00:37;38127.00;;;10.10
68440;BMP180;55421;51.600;5.718;2022-11-15T04:03:04;31335.40;;;10.10
68440;BMP180;55421;51.600;5.718;2022-11-15T04:05:30;24289.60;;;10.10
68440;BMP180;55421;51.600;5.718;2022-11-15T04:07:57;22405.20;;;10.20
68440;BMP180;55421;51.600;5.718;2022-11-15T04:10:23;90328.20;;;10.20
68440;BMP180;55421;51.600;5.718;2022-11-15T04:12:50;89785.20;;;10.20
68440;BMP180;55421;51.600;5.718;2022-11-15T04:15:20;84258.40;;;10.20
68440;BMP180;55421;51.600;5.718;2022-11-15T04:17:51;74332.40;;;10.30
68440;BMP180;55421;51.600;5.718;2022-11-15T04:20:28;60311.60;;;10.30
68440;BMP180;55421;51.600;5.718;2022-11-15T04:23:21;56382.80;;;10.34
68440;BMP180;55421;51.600;5.718;2022-11-15T04:26:21;71322.00;;;10.40
68440;BMP180;55421;51.600;5.718;2022-11-15T04:28:48;50741.60;;;10.40
68440;BMP180;55421;51.600;5.718;2022-11-15T04:31:34;84598.20;;;10.40
68440;BMP180;55421;51.600;5.718;2022-11-15T04:34:00;70570.00;;;10.40
68440;BMP180;55421;51.600;5.718;2022-11-15T04:36:27;73114.60;;;10.40
68440;BMP180;55421;51.600;5.718;2022-11-15T04:39:12;47798.80;;;10.40
68440;BMP180;55421;51.600;5.718;2022-11-15T04:41:39;70082.20;;;10.40
68440;BMP180;55421;51.600;5.718;2022-11-15T04:44:05;40149.40;;;10.40
68440;BMP180;55421;51.600;5.718;2022-11-15T04:46:32;72944.80;;;10.40
68440;BMP180;55421;51.600;5.718;2022-11-15T04:48:58;59699.60;;;10.40
68440;BMP180;55421;51.600;5.718;2022-11-15T04:51:26;77753.20;;;10.40
68440;BMP180;55421;51.600;5.718;2022-11-15T04:53:52;54508.00;;;10.50
68440;BMP180;55421;51.600;5.718;2022-11-15T04:56:19;58840.80;;;10.50
68440;BMP180;55421;51.600;5.718;2022-11-15T04:58:49;54905.00;;;10.50
68440;BMP180;55421;51.600;5.718;2022-11-15T05:01:16;48071.20;;;10.50
68440;BMP180;55421;51.600;5.718;2022-11-15T05:03:44;46055.60;;;10.50
68440;BMP180;55421;51.600;5.718;2022-11-15T05:06:29;41601.80;;;10.50
68440;BMP180;55421;51.600;5.718;2022-11-15T05:08:57;69462.40;;;10.54
68440;BMP180;55421;51.600;5.718;2022-11-15T05:11:24;68843.40;;;10.60
68440;BMP180;55421;51.600;5.718;2022-11-15T05:13:50;63906.60;;;10.60
68440;BMP180;55421;51.600;5.718;2022-11-15T05:16:17;58227.60;;;10.50
68440;BMP180;55421;51.600;5.718;2022-11-15T05:18:44;59320.20;;;10.50
68440;BMP180;55421;51.600;5.718;2022-11-15T05:21:14;65648.80;;;10.50
68440;BMP180;55421;51.600;5.718;2022-11-15T05:23:41;51257.00;;;10.58
68440;BMP180;55421;51.600;5.718;2022-11-15T05:26:09;68894.20;;;10.54
68440;BMP180;55421;51.600;5.718;2022-11-15T05:28:36;50533.40;;;10.50
68440;BMP180;55421;51.600;5.718;2022-11-15T05:31:12;36356.60;;;10.50
68440;BMP180;55421;51.600;5.718;2022-11-15T05:33:40;19082.20;;;10.50
68440;BMP180;55421;51.600;5.718;2022-11-15T05:38:53;87480.00;;;10.60
68440;BMP180;55421;51.600;5.718;2022-11-15T05:41:27;76900.40;;;10.60
68440;BMP180;55421;51.600;5.718;2022-11-15T05:43:56;100466.80;;;10.60
68440;BMP180;55421;51.600;5.718;2022-11-15T05:46:23;75632.40;;;10.50
68440;BMP180;55421;51.600;5.718;2022-11-15T05:48:53;55276.40;;;10.58
68440;BMP180;55421;51.600;5.718;2022-11-15T05:51:22;71413.40;;;10.52
68440;BMP180;55421;51.600;5.718;2022-11-15T05:53:51;77680.20;;;10.54
68440;BMP180;55421;51.600;5.718;2022-11-15T05:56:18;74664.00;;;10.52
68440;BMP180;55421;51.600;5.718;2022-11-15T05:58:45;55785.20;;;10.50
68440;BMP180;55421;51.600;5.718;2022-11-15T06:01:12;51077.40;;;10.56
68440;BMP180;55421;51.600;5.718;2022-11-15T06:03:38;43172.80;;;10.58
68440;BMP180;55421;51.600;5.718;2022-11-15T06:06:05;58390.20;;;10.60
68440;BMP180;55421;51.600;5.718;2022-11-15T06:08:32;77178.20;;;10.66
68440;BMP180;55421;51.600;5.718;2022-11-15T06:11:06;61597.40;;;10.70
68440;BMP180;55421;51.600;5.718;2022-11-15T06:13:33;59878.00;;;10.70
68440;BMP180;55421;51.600;5.718;2022-11-15T06:16:00;54217.40;;;10.70
68440;BMP180;55421;51.600;5.718;2022-11-15T06:18:27;35154.80;;;10.70
68440;BMP180;55421;51.600;5.718;2022-11-15T06:20:53;64433.60;;;10.70
68440;BMP180;55421;51.600;5.718;2022-11-15T06:23:24;47407.00;;;10.70
68440;BMP180;55421;51.600;5.718;2022-11-15T06:25:50;46529.80;;;10.70
68440;BMP180;55421;51.600;5.718;2022-11-15T06:28:17;70018.40;;;10.80
68440;BMP180;55421;51.600;5.718;2022-11-15T06:30:43;65630.00;;;10.80
68440;BMP180;55421;51.600;5.718;2022-11-15T06:33:10;40803.00;;;10.80
68440;BMP180;55421;51.600;5.718;2022-11-15T06:35:37;36441.60;;;10.78
68440;BMP180;55421;51.600;5.718;2022-11-15T06:38:09;52129.20;;;10.72
68440;BMP180;55421;51.600;5.718;2022-11-15T06:40:39;22019.60;;;10.70
68440;BMP180;55421;51.600;5.718;2022-11-15T06:43:06;79973.80;;;10.74
68440;BMP180;55421;51.600;5.718;2022-11-15T06:45:33;68256.80;;;10.78
68440;BMP180;55421;51.600;5.718;2022-11-15T06:48:00;66180.40;;;10.80
68440;BMP180;55421;51.600;5.718;2022-11-15T06:50:27;74615.60;;;10.78
68440;BMP180;55421;51.600;5.718;2022-11-15T06:52:53;52687.00;;;10.70
68440;BMP180;55421;51.600;5.718;2022-11-15T06:55:21;77339.80;;;10.70
68440;BMP180;55421;51.600;5.718;2022-11-15T06:57:50;50341.60;;;10.70
68440;BMP180;55421;51.600;5.718;2022-11-15T07:00:20;29384.20;;;10.70
68440;BMP180;55421;51.600;5.718;2022-11-15T07:02:47;57254.80;;;10.70
68440;BMP180;55421;51.600;5.718;2022-11-15T07:05:14;51168.20;;;10.70
68440;BMP180;55421;51.600;5.718;2022-11-15T07:07:42;70996.20;;;10.70
68440;BMP180;55421;51.600;5.718;2022-11-15T07:10:09;69402.20;;;10.72
68440;BMP180;55421;51.600;5.718;2022-11-15T07:12:35;53700.80;;;10.70
68440;BMP180;55421;51.600;5.718;2022-11-15T07:15:02;36360.60;;;10.70
68440;BMP180;55421;51.600;5.718;2022-11-15T07:17:29;73348.20;;;10.78
68440;BMP180;55421;51.600;5.718;2022-11-15T07:19:55;49736.20;;;10.80
68440;BMP180;55421;51.600;5.718;2022-11-15T07:22:22;41584.40;;;10.80
68440;BMP180;55421;51.600;5.718;2022-11-15T07:24:48;64340.40;;;10.80
68440;BMP180;55421;51.600;5.718;2022-11-15T07:27:15;40018.80;;;10.80
68440;BMP180;55421;51.600;5.718;2022-11-15T07:29:41;26505.20;;;10.86
68440;BMP180;55421;51.600;5.718;2022-11-15T07:32:09;69954.80;;;10.88
68440;BMP180;55421;51.600;5.718;2022-11-15T07:34:35;66302.00;;;10.80
68440;BMP180;55421;51.600;5.718;2022-11-15T07:37:02;74086.20;;;10.80
68440;BMP180;55421;51.600;5.718;2022-11-15T07:39:28;64297.20;;;10.80
68440;BMP180;55421;51.600;5.718;2022-11-15T07:41:59;52126.00;;;10.90
68440;BMP180;55421;51.600;5.718;2022-11-15T07:44:45;73115.00;;;10.90
68440;BMP180;55421;51.600;5.718;2022-11-15T07:47:11;31961.80;;;10.90
68440;BMP180;55421;51.600;5.718;2022-11-15T07:49:38;57161.20;;;10.90
68440;BMP180;55421;51.600;5.718;2022-11-15T07:52:05;61668.00;;;10.90
68440;BMP180;55421;51.600;5.718;2022-11-15T07:54:31;48353.20;;;10.90
68440;BMP180;55421;51.600;5.718;2022-11-15T07:56:58;67465.40;;;10.90
68440;BMP180;55421;51.600;5.718;2022-11-15T07:59:24;76219.60;;;10.90
68440;BMP180;55421;51.600;5.718;2022-11-15T08:01:51;51760.80;;;10.90
68440;BMP180;55421;51.600;5.718;2022-11-15T08:04:17;66496.00;;;10.90
68440;BMP180;55421;51.600;5.718;2022-11-15T08:06:44;45167.60;;;10.90
68440;BMP180;55421;51.600;5.718;2022-11-15T08:09:10;91353.60;;;10.90
68440;BMP180;55421;51.600;5.718;2022-11-15T08:11:37;53177.60;;;10.86
68440;BMP180;55421;51.600;5.718;2022-11-15T08:14:03;50100.60;;;10.80
68440;BMP180;55421;51.600;5.718;2022-11-15T08:16:30;70132.40;;;10.80
68440;BMP180;55421;51.600;5.718;2022-11-15T08:18:57;54449.20;;;10.80
68440;BMP180;55421;51.600;5.718;2022-11-15T08:21:23;85276.40;;;10.80
68440;BMP180;55421;51.600;5.718;2022-11-15T08:23:50;78455.20;;;10.80
68440;BMP180;55421;51.600;5.718;2022-11-15T08:26:17;40309.40;;;10.82
68440;BMP180;55421;51.600;5.718;2022-11-15T08:28:43;67293.40;;;10.82
68440;BMP180;55421;51.600;5.718;2022-11-15T08:31:15;79178.80;;;10.80
68440;BMP180;55421;51.600;5.718;2022-11-15T08:33:44;60003.40;;;10.80
68440;BMP180;55421;51.600;5.718;2022-11-15T08:36:16;50179.60;;;10.80
68440;BMP180;55421;51.600;5.718;2022-11-15T08:38:43;44954.80;;;10.80
68440;BMP180;55421;51.600;5.718;2022-11-15T08:41:25;48444.40;;;10.80
68440;BMP180;55421;51.600;5.718;2022-11-15T08:43:53;66838.60;;;10.80
68440;BMP180;55421;51.600;5.718;2022-11-15T08:46:19;52561.80;;;10.80
68440;BMP180;55421;51.600;5.718;2022-11-15T08:48:46;50924.80;;;10.80
68440;BMP180;55421;51.600;5.718;2022-11-15T08:51:12;74122.20;;;10.80
68440;BMP180;55421;51.600;5.718;2022-11-15T08:53:39;61986.40;;;10.86
68440;BMP180;55421;51.600;5.718;2022-11-15T08:56:12;58606.60;;;10.90
68440;BMP180;55421;51.600;5.718;2022-11-15T08:58:39;91204.00;;;10.90
68440;BMP180;55421;51.600;5.718;2022-11-15T09:01:17;57013.80;;;10.90
68440;BMP180;55421;51.600;5.718;2022-11-15T09:03:44;70517.40;;;10.90
68440;BMP180;55421;51.600;5.718;2022-11-15T09:06:11;52972.20;;;10.90
68440;BMP180;55421;51.600;5.718;2022-11-15T09:08:39;71882.20;;;10.90
68440;BMP180;55421;51.600;5.718;2022-11-15T09:11:08;71850.20;;;10.90
68440;BMP180;55421;51.600;5.718;2022-11-15T09:13:36;67786.00;;;10.88
68440;BMP180;55421;51.600;5.718;2022-11-15T09:16:04;47151.20;;;10.90
68440;BMP180;55421;51.600;5.718;2022-11-15T09:18:31;72932.60;;;10.90
68440;BMP180;55421;51.600;5.718;2022-11-15T09:20:59;81209.60;;;11.00
68440;BMP180;55421;51.600;5.718;2022-11-15T09:23:26;125861.00;;;11.02
68440;BMP180;55421;51.600;5.718;2022-11-15T09:25:59;56725.00;;;11.04
68440;BMP180;55421;51.600;5.718;2022-11-15T09:28:28;25378.00;;;11.00
68440;BMP180;55421;51.600;5.718;2022-11-15T09:30:59;223356.20;;;11.00
68440;BMP180;55421;51.600;5.718;2022-11-15T09:33:27;39753.60;;;11.00
68440;BMP180;55421;51.600;5.718;2022-11-15T09:35:54;23151.00;;;11.10
68440;BMP180;55421;51.600;5.718;2022-11-15T09:38:20;102896.40;;;11.20
68440;BMP180;55421;51.600;5.718;2022-11-15T09:41:23;33149.80;;;11.20
68440;BMP180;55421;51.600;5.718;2022-11-15T09:44:20;20982.20;;;11.30
68440;BMP180;55421;51.600;5.718;2022-11-15T09:49:33;112175.40;;;11.28
68440;BMP180;55421;51.600;5.718;2022-11-15T09:52:00;77787.60;;;11.30
68440;BMP180;55421;51.600;5.718;2022-11-15T09:54:38;82691.80;;;11.30
68440;BMP180;55421;51.600;5.718;2022-11-15T09:57:30;33926.60;;;11.40
68440;BMP180;55421;51.600;5.718;2022-11-15T10:01:02;33273.20;;;11.40
68440;BMP180;55421;51.600;5.718;2022-11-15T10:03:16;114206.80;;;11.40
68440;BMP180;55421;51.600;5.718;2022-11-15T10:05:46;83793.00;;;11.50
68440;BMP180;55421;51.600;5.718;2022-11-15T10:09:37;60640.20;;;11.54
68440;BMP180;55421;51.600;5.718;2022-11-15T10:11:32;41121.60;;;11.60
68440;BMP180;55421;51.600;5.718;2022-11-15T10:14:12;83446.00;;;11.70
68440;BMP180;55421;51.600;5.718;2022-11-15T10:17:26;81959.60;;;11.70
68440;BMP180;55421;51.600;5.718;2022-11-15T10:20:05;90179.20;;;11.70
68440;BMP180;55421;51.600;5.718;2022-11-15T10:22:45;86941.60;;;11.80
68440;BMP180;55421;51.600;5.718;2022-11-15T10:28:14;119119.80;;;11.80
68440;BMP180;55421;51.600;5.718;2022-11-15T10:30:54;151003.00;;;11.80
68440;BMP180;55421;51.600;5.718;2022-11-15T10:33:38;152095.41;;;11.80
68440;BMP180;55421;51.600;5.718;2022-11-15T10:41:29;156318.00;;;11.90
68440;BMP180;55421;51.600;5.718;2022-11-15T10:47:05;151260.59;;;11.88
68440;BMP180;55421;51.600;5.718;2022-11-15T10:49:34;157704.41;;;11.80
68440;BMP180;55421;51.600;5.718;2022-11-15T10:52:20;122356.20;;;11.80
68440;BMP180;55421;51.600;5.718;2022-11-15T10:54:59;108585.40;;;11.70
68440;BMP180;55421;51.600;5.718;2022-11-15T10:57:32;116760.80;;;11.68
68440;BMP180;55421;51.600;5.718;2022-11-15T11:00:22;134261.20;;;11.60
68440;BMP180;55421;51.600;5.718;2022-11-15T11:05:36;119549.00;;;11.60
68440;BMP180;55421;51.600;5.718;2022-11-15T11:08:22;130019.60;;;11.60
68440;BMP180;55421;51.600;5.718;2022-11-15T11:10:55;129996.40;;;11.66
68440;BMP180;55421;51.600;5.718;2022-11-15T11:28:25;66130.80;;;11.90
68440;BMP180;55421;51.600;5.718;2022-11-15T11:37:02;109867.60;;;12.10
68440;BMP180;55421;51.600;5.718;2022-11-15T11:42:56;133893.00;;;12.10
68440;BMP180;55421;51.600;5.718;2022-11-15T11:45:47;134626.00;;;12.08
68440;BMP180;55421;51.600;5.718;2022-11-15T11:51:03;121990.00;;;11.90
68440;BMP180;55421;51.600;5.718;2022-11-15T11:53:40;101631.00;;;11.88
68440;BMP180;55421;51.600;5.718;2022-11-15T11:56:23;112271.00;;;11.80
68440;BMP180;55421;51.600;5.718;2022-11-15T11:58:55;118948.60;;;11.80
68440;BMP180;55421;51.600;5.718;2022-11-15T12:01:41;125797.00;;;11.80
68440;BMP180;55421;51.600;5.718;2022-11-15T12:04:29;134410.80;;;11.88
68440;BMP180;55421;51.600;5.718;2022-11-15T12:07:05;135843.00;;;11.90
68440;BMP180;55421;51.600;5.718;2022-11-15T12:09:55;137044.00;;;11.90
68440;BMP180;55421;51.600;5.718;2022-11-15T12:12:35;126421.40;;;11.90
68440;BMP180;55421;51.600;5.718;2022-11-15T12:15:16;114885.20;;;12.00
68440;BMP180;55421;51.600;5.718;2022-11-15T12:17:44;90294.00;;;12.00
68440;BMP180;55421;51.600;5.718;2022-11-15T12:20:20;56567.20;;;12.00
68440;BMP180;55421;51.600;5.718;2022-11-15T12:23:03;70844.20;;;12.10
68440;BMP180;55421;51.600;5.718;2022-11-15T12:25:47;66964.80;;;12.10
68440;BMP180;55421;51.600;5.718;2022-11-15T12:28:48;57760.80;;;12.10
68440;BMP180;55421;51.600;5.718;2022-11-15T12:31:41;73021.20;;;12.14
68440;BMP180;55421;51.600;5.718;2022-11-15T12:34:37;87471.60;;;12.20
68440;BMP180;55421;51.600;5.718;2022-11-15T12:37:48;88205.80;;;12.30
68440;BMP180;55421;51.600;5.718;2022-11-15T12:40:24;88024.00;;;12.30
68440;BMP180;55421;51.600;5.718;2022-11-15T12:45:42;72479.20;;;12.40
68440;BMP180;55421;51.600;5.718;2022-11-15T12:58:46;29605.40;;;12.30
68440;BMP180;55421;51.600;5.718;2022-11-15T13:06:49;195116.59;;;12.20
68440;BMP180;55421;51.600;5.718;2022-11-15T13:22:41;53226.40;;;12.30
68440;BMP180;55421;51.600;5.718;2022-11-15T13:30:50;148158.59;;;12.20
68440;BMP180;55421;51.600;5.718;2022-11-15T13:33:31;190866.80;;;12.20
68440;BMP180;55421;51.600;5.718;2022-11-15T13:36:25;235547.20;;;12.20
68440;BMP180;55421;51.600;5.718;2022-11-15T13:39:00;240056.00;;;12.20
68440;BMP180;55421;51.600;5.718;2022-11-15T13:41:32;193006.80;;;12.20
68440;BMP180;55421;51.600;5.718;2022-11-15T13:44:01;191048.00;;;12.20
68440;BMP180;55421;51.600;5.718;2022-11-15T13:46:30;240710.41;;;12.14
68440;BMP180;55421;51.600;5.718;2022-11-15T13:49:08;147073.20;;;12.10
68440;BMP180;55421;51.600;5.718;2022-11-15T13:51:50;192136.41;;;12.10
68440;BMP180;55421;51.600;5.718;2022-11-15T13:54:42;190394.41;;;12.10
68440;BMP180;55421;51.600;5.718;2022-11-15T13:57:26;191024.80;;;12.10
68440;BMP180;55421;51.600;5.718;2022-11-15T14:00:02;148938.00;;;12.20
68440;BMP180;55421;51.600;5.718;2022-11-15T14:02:34;234378.41;;;12.20
68440;BMP180;55421;51.600;5.718;2022-11-15T14:05:16;233568.20;;;12.20
68440;BMP180;55421;51.600;5.718;2022-11-15T14:08:02;229749.20;;;12.20
68440;BMP180;55421;51.600;5.718;2022-11-15T14:10:35;235506.59;;;12.20
68440;BMP180;55421;51.600;5.718;2022-11-15T14:13:09;231963.80;;;12.10
68440;BMP180;55421;51.600;5.718;2022-11-15T14:15:39;230092.59;;;12.10
68440;BMP180;55421;51.600;5.718;2022-11-15T14:18:43;229137.59;;;12.06
68440;BMP180;55421;51.600;5.718;2022-11-15T14:21:12;234373.20;;;12.00
68440;BMP180;55421;51.600;5.718;2022-11-15T14:23:38;236076.00;;;12.00
68440;BMP180;55421;51.600;5.718;2022-11-15T14:26:05;237627.59;;;11.90
68440;BMP180;55421;51.600;5.718;2022-11-15T14:28:33;232474.41;;;11.90
68440;BMP180;55421;51.600;5.718;2022-11-15T14:31:12;235096.00;;;12.00
68440;BMP180;55421;51.600;5.718;2022-11-15T14:33:41;234393.20;;;12.00
68440;BMP180;55421;51.600;5.718;2022-11-15T14:36:12;230491.00;;;12.00
68440;BMP180;55421;51.600;5.718;2022-11-15T14:38:40;230987.80;;;12.00
68440;BMP180;55421;51.600;5.718;2022-11-15T14:41:18;234329.80;;;12.00
68440;BMP180;55421;51.600;5.718;2022-11-15T14:43:45;233055.20;;;11.98
68440;BMP180;55421;51.600;5.718;2022-11-15T14:46:11;231829.00;;;11.92
68440;BMP180;55421;51.600;5.718;2022-11-15T14:48:38;231682.20;;;11.92
68440;BMP180;55421;51.600;5.718;2022-11-15T14:51:15;229803.00;;;12.00
68440;BMP180;55421;51.600;5.718;2022-11-15T14:53:43;229145.80;;;12.00
68440;BMP180;55421;51.600;5.718;2022-11-15T14:56:10;230772.80;;;12.00
68440;BMP180;55421;51.600;5.718;2022-11-15T14:58:38;228636.59;;;12.00
68440;BMP180;55421;51.600;5.718;2022-11-15T15:01:17;229923.59;;;12.00
68440;BMP180;55421;51.600;5.718;2022-11-15T15:03:45;227474.80;;;12.00
68440;BMP180;55421;51.600;5.718;2022-11-15T15:06:12;225310.00;;;11.92
68440;BMP180;55421;51.600;5.718;2022-11-15T15:08:40;223772.20;;;11.90
68440;BMP180;55421;51.600;5.718;2022-11-15T15:11:15;229725.59;;;11.90
68440;BMP180;55421;51.600;5.718;2022-11-15T15:13:42;230250.20;;;11.90
68440;BMP180;55421;51.600;5.718;2022-11-15T15:16:09;230639.59;;;11.92
68440;BMP180;55421;51.600;5.718;2022-11-15T15:18:35;231083.00;;;11.90
68440;BMP180;55421;51.600;5.718;2022-11-15T15:21:02;228960.80;;;11.90
68440;BMP180;55421;51.600;5.718;2022-11-15T15:23:33;228785.80;;;11.90
68440;BMP180;55421;51.600;5.718;2022-11-15T15:26:02;225155.00;;;11.82
68440;BMP180;55421;51.600;5.718;2022-11-15T15:28:29;226204.41;;;11.80
68440;BMP180;55421;51.600;5.718;2022-11-15T15:30:56;225883.00;;;11.80
68440;BMP180;55421;51.600;5.718;2022-11-15T15:33:22;226564.80;;;11.80
68440;BMP180;55421;51.600;5.718;2022-11-15T15:35:49;227638.41;;;11.80
68440;BMP180;55421;51.600;5.718;2022-11-15T15:38:15;228091.59;;;11.80
68440;BMP180;55421;51.600;5.718;2022-11-15T15:40:42;231904.80;;;11.80
68440;BMP180;55421;51.600;5.718;2022-11-15T15:43:08;237156.20;;;11.80
68440;BMP180;55421;51.600;5.718;2022-11-15T15:45:41;191155.20;;;11.72
68440;BMP180;55421;51.600;5.718;2022-11-15T15:48:13;191426.80;;;11.70
68440;BMP180;55421;51.600;5.718;2022-11-15T15:50:41;101664.40;;;11.70
68440;BMP180;55421;51.600;5.718;2022-11-15T15:53:11;10550.60;;;11.70
68440;BMP180;55421;51.600;5.718;2022-11-15T15:55:38;17043.00;;;11.80
68440;BMP180;55421;51.600;5.718;2022-11-15T15:58:05;22387.20;;;11.78
68440;BMP180;55421;51.600;5.718;2022-11-15T16:00:32;25712.00;;;11.80
68440;BMP180;55421;51.600;5.718;2022-11-15T16:02:59;33650.00;;;11.72
68440;BMP180;55421;51.600;5.718;2022-11-15T16:05:26;39660.80;;;11.70
68440;BMP180;55421;51.600;5.718;2022-11-15T16:07:52;47617.00;;;11.70
68440;BMP180;55421;51.600;5.718;2022-11-15T16:10:32;60054.20;;;11.70
68440;BMP180;55421;51.600;5.718;2022-11-15T16:13:00;75338.60;;;11.70
68440;BMP180;55421;51.600;5.718;2022-11-15T16:15:30;80168.00;;;11.70
68440;BMP180;55421;51.600;5.718;2022-11-15T16:18:00;89009.00;;;11.70
68440;BMP180;55421;51.600;5.718;2022-11-15T16:20:41;94804.20;;;11.74